Terminal Aerodrome Forecast
Issued by NWS

Home | Current Version | Previous Version | Text Only | Print | Product List | Glossary On
Versions: 1 2 3 4 5 6 7 8 9 10 11 12
000
FTUS44 KTSA 080525
TAFXNA
TAF
KXNA 080525Z 0806/0906 31013G20KT P6SM BKN090
     FM081400 32015G28KT P6SM BKN050
     FM090000 32012KT P6SM SKC=

USA.gov is the U.S. government's official web portal to all federal, state and local government web resources and services.